sensor_id;sensor_type;location;lat;lon;timestamp;P1;durP1;ratioP1;P2;durP2;ratioP2
48285;SDS011;34102;47.716;10.296;2023-12-22T03:45:39;0.50;;;0.10;;
48285;SDS011;34102;47.716;10.296;2023-12-22T03:48:05;1.23;;;0.10;;
48285;SDS011;34102;47.716;10.296;2023-12-22T03:50:32;0.32;;;0.00;;
48285;SDS011;34102;47.716;10.296;2023-12-22T03:53:01;2.50;;;0.10;;
48285;SDS011;34102;47.716;10.296;2023-12-22T03:55:29;0.75;;;0.00;;
48285;SDS011;34102;47.716;10.296;2023-12-22T03:57:56;0.52;;;0.28;;
48285;SDS011;34102;47.716;10.296;2023-12-22T04:02:49;4.72;;;0.10;;
48285;SDS011;34102;47.716;10.296;2023-12-22T04:05:15;0.45;;;0.00;;
48285;SDS011;34102;47.716;10.296;2023-12-22T04:07:40;0.40;;;0.10;;
48285;SDS011;34102;47.716;10.296;2023-12-22T04:10:07;1.95;;;0.10;;
48285;SDS011;34102;47.716;10.296;2023-12-22T04:12:36;3.47;;;0.15;;
48285;SDS011;34102;47.716;10.296;2023-12-22T04:15:01;1.00;;;0.10;;
48285;SDS011;34102;47.716;10.296;2023-12-22T04:17:28;1.33;;;0.10;;
48285;SDS011;34102;47.716;10.296;2023-12-22T04:19:54;1.80;;;0.73;;
48285;SDS011;34102;47.716;10.296;2023-12-22T04:22:22;1.65;;;0.20;;
48285;SDS011;34102;47.716;10.296;2023-12-22T04:24:49;2.75;;;0.40;;
48285;SDS011;34102;47.716;10.296;2023-12-22T04:27:16;2.85;;;0.40;;
48285;SDS011;34102;47.716;10.296;2023-12-22T04:29:41;3.10;;;0.60;;
48285;SDS011;34102;47.716;10.296;2023-12-22T04:32:08;3.10;;;0.40;;
48285;SDS011;34102;47.716;10.296;2023-12-22T04:34:35;2.92;;;0.30;;
48285;SDS011;34102;47.716;10.296;2023-12-22T04:37:00;1.30;;;0.30;;
48285;SDS011;34102;47.716;10.296;2023-12-22T04:39:26;3.25;;;0.38;;
48285;SDS011;34102;47.716;10.296;2023-12-22T04:41:54;3.60;;;0.35;;
48285;SDS011;34102;47.716;10.296;2023-12-22T04:44:20;1.42;;;0.30;;
48285;SDS011;34102;47.716;10.296;2023-12-22T04:46:45;1.77;;;0.35;;
48285;SDS011;34102;47.716;10.296;2023-12-22T04:49:11;1.55;;;0.60;;
48285;SDS011;34102;47.716;10.296;2023-12-22T04:51:36;2.75;;;0.38;;
48285;SDS011;34102;47.716;10.296;2023-12-22T04:54:02;3.55;;;0.95;;
48285;SDS011;34102;47.716;10.296;2023-12-22T04:56:28;1.23;;;0.50;;
48285;SDS011;34102;47.716;10.296;2023-12-22T04:58:56;4.38;;;0.40;;
48285;SDS011;34102;47.716;10.296;2023-12-22T05:01:22;3.50;;;0.38;;
48285;SDS011;34102;47.716;10.296;2023-12-22T05:03:47;3.75;;;0.77;;
48285;SDS011;34102;47.716;10.296;2023-12-22T05:06:13;2.20;;;0.75;;
48285;SDS011;34102;47.716;10.296;2023-12-22T05:08:40;1.25;;;0.20;;
48285;SDS011;34102;47.716;10.296;2023-12-22T05:11:05;1.13;;;0.17;;
48285;SDS011;34102;47.716;10.296;2023-12-22T05:13:33;4.43;;;1.60;;
48285;SDS011;34102;47.716;10.296;2023-12-22T05:16:01;3.25;;;0.20;;
48285;SDS011;34102;47.716;10.296;2023-12-22T05:18:26;2.15;;;0.20;;
48285;SDS011;34102;47.716;10.296;2023-12-22T05:20:53;1.42;;;0.20;;
48285;SDS011;34102;47.716;10.296;2023-12-22T05:23:19;3.78;;;0.40;;
48285;SDS011;34102;47.716;10.296;2023-12-22T05:25:44;4.72;;;0.68;;
48285;SDS011;34102;47.716;10.296;2023-12-22T05:28:10;5.57;;;0.50;;
48285;SDS011;34102;47.716;10.296;2023-12-22T05:30:36;2.05;;;0.60;;
48285;SDS011;34102;47.716;10.296;2023-12-22T05:33:01;1.75;;;0.75;;
48285;SDS011;34102;47.716;10.296;2023-12-22T05:35:30;3.63;;;0.52;;
48285;SDS011;34102;47.716;10.296;2023-12-22T05:37:56;2.17;;;0.50;;
48285;SDS011;34102;47.716;10.296;2023-12-22T05:40:25;1.77;;;0.40;;
48285;SDS011;34102;47.716;10.296;2023-12-22T05:42:52;2.13;;;0.38;;
48285;SDS011;34102;47.716;10.296;2023-12-22T05:45:19;3.20;;;0.93;;
48285;SDS011;34102;47.716;10.296;2023-12-22T05:47:45;3.50;;;0.85;;
48285;SDS011;34102;47.716;10.296;2023-12-22T05:50:10;1.63;;;0.32;;
48285;SDS011;34102;47.716;10.296;2023-12-22T05:52:37;1.23;;;0.40;;
48285;SDS011;34102;47.716;10.296;2023-12-22T05:55:05;6.70;;;1.05;;
48285;SDS011;34102;47.716;10.296;2023-12-22T05:57:34;1.20;;;0.35;;
48285;SDS011;34102;47.716;10.296;2023-12-22T06:00:02;0.60;;;0.30;;
48285;SDS011;34102;47.716;10.296;2023-12-22T06:02:33;3.05;;;0.50;;
48285;SDS011;34102;47.716;10.296;2023-12-22T06:04:59;3.28;;;0.82;;
48285;SDS011;34102;47.716;10.296;2023-12-22T06:07:24;1.95;;;0.40;;
48285;SDS011;34102;47.716;10.296;2023-12-22T06:09:50;5.75;;;1.48;;
48285;SDS011;34102;47.716;10.296;2023-12-22T06:12:15;4.00;;;0.50;;
48285;SDS011;34102;47.716;10.296;2023-12-22T06:14:40;1.25;;;0.20;;
48285;SDS011;34102;47.716;10.296;2023-12-22T06:17:07;2.53;;;0.40;;
48285;SDS011;34102;47.716;10.296;2023-12-22T06:19:35;1.45;;;0.60;;
48285;SDS011;34102;47.716;10.296;2023-12-22T06:22:00;2.20;;;0.30;;
48285;SDS011;34102;47.716;10.296;2023-12-22T06:24:28;5.72;;;0.38;;
48285;SDS011;34102;47.716;10.296;2023-12-22T06:26:55;1.95;;;0.63;;
48285;SDS011;34102;47.716;10.296;2023-12-22T06:29:20;1.52;;;0.22;;
48285;SDS011;34102;47.716;10.296;2023-12-22T08:11:32;3.88;;;0.60;;
48285;SDS011;34102;47.716;10.296;2023-12-22T08:13:59;5.07;;;0.70;;
48285;SDS011;34102;47.716;10.296;2023-12-22T08:16:25;2.42;;;0.50;;
48285;SDS011;34102;47.716;10.296;2023-12-22T08:18:50;3.40;;;0.47;;
48285;SDS011;34102;47.716;10.296;2023-12-22T08:21:16;5.35;;;0.80;;
48285;SDS011;34102;47.716;10.296;2023-12-22T08:23:42;2.60;;;0.65;;
48285;SDS011;34102;47.716;10.296;2023-12-22T08:26:08;6.13;;;0.70;;
48285;SDS011;34102;47.716;10.296;2023-12-22T08:28:34;4.47;;;0.50;;
48285;SDS011;34102;47.716;10.296;2023-12-22T08:30:59;5.43;;;0.45;;
48285;SDS011;34102;47.716;10.296;2023-12-22T08:33:28;9.07;;;0.57;;
48285;SDS011;34102;47.716;10.296;2023-12-22T08:35:54;6.05;;;0.60;;
48285;SDS011;34102;47.716;10.296;2023-12-22T08:38:19;6.93;;;0.90;;
48285;SDS011;34102;47.716;10.296;2023-12-22T08:40:45;4.50;;;0.85;;
48285;SDS011;34102;47.716;10.296;2023-12-22T08:43:10;7.05;;;1.48;;
48285;SDS011;34102;47.716;10.296;2023-12-22T08:45:35;5.50;;;0.47;;
48285;SDS011;34102;47.716;10.296;2023-12-22T08:48:01;3.05;;;0.90;;
48285;SDS011;34102;47.716;10.296;2023-12-22T08:50:27;4.38;;;0.88;;
48285;SDS011;34102;47.716;10.296;2023-12-22T08:52:53;4.72;;;0.85;;
48285;SDS011;34102;47.716;10.296;2023-12-22T08:55:18;5.45;;;0.98;;
48285;SDS011;34102;47.716;10.296;2023-12-22T08:57:43;5.95;;;1.17;;
48285;SDS011;34102;47.716;10.296;2023-12-22T09:00:09;4.68;;;0.75;;
48285;SDS011;34102;47.716;10.296;2023-12-22T09:02:36;5.55;;;0.77;;
48285;SDS011;34102;47.716;10.296;2023-12-22T09:05:01;5.32;;;0.90;;
48285;SDS011;34102;47.716;10.296;2023-12-22T09:07:27;6.55;;;0.80;;
48285;SDS011;34102;47.716;10.296;2023-12-22T09:09:52;5.28;;;0.80;;
48285;SDS011;34102;47.716;10.296;2023-12-22T09:12:17;6.55;;;1.15;;
48285;SDS011;34102;47.716;10.296;2023-12-22T09:14:43;8.55;;;0.82;;
48285;SDS011;34102;47.716;10.296;2023-12-22T09:17:08;5.85;;;0.60;;
48285;SDS011;34102;47.716;10.296;2023-12-22T09:19:33;6.45;;;0.93;;
48285;SDS011;34102;47.716;10.296;2023-12-22T09:21:59;6.68;;;0.57;;
48285;SDS011;34102;47.716;10.296;2023-12-22T09:24:25;6.97;;;1.02;;
48285;SDS011;34102;47.716;10.296;2023-12-22T09:26:50;3.35;;;0.77;;
48285;SDS011;34102;47.716;10.296;2023-12-22T09:29:16;3.10;;;0.80;;
48285;SDS011;34102;47.716;10.296;2023-12-22T09:31:42;6.25;;;1.00;;
48285;SDS011;34102;47.716;10.296;2023-12-22T09:34:10;5.60;;;0.95;;
48285;SDS011;34102;47.716;10.296;2023-12-22T09:36:36;4.22;;;0.93;;
48285;SDS011;34102;47.716;10.296;2023-12-22T09:39:01;8.10;;;2.25;;
48285;SDS011;34102;47.716;10.296;2023-12-22T09:41:27;20.30;;;4.07;;
48285;SDS011;34102;47.716;10.296;2023-12-22T09:43:54;15.57;;;4.18;;
48285;SDS011;34102;47.716;10.296;2023-12-22T09:46:22;14.70;;;2.33;;
48285;SDS011;34102;47.716;10.296;2023-12-22T09:48:49;21.85;;;3.70;;
48285;SDS011;34102;47.716;10.296;2023-12-22T09:51:18;6.85;;;1.67;;
48285;SDS011;34102;47.716;10.296;2023-12-22T09:53:44;11.32;;;2.08;;
48285;SDS011;34102;47.716;10.296;2023-12-22T09:56:10;13.13;;;3.03;;
48285;SDS011;34102;47.716;10.296;2023-12-22T09:58:39;7.95;;;0.90;;
48285;SDS011;34102;47.716;10.296;2023-12-22T10:01:05;9.75;;;1.60;;
48285;SDS011;34102;47.716;10.296;2023-12-22T10:03:34;9.07;;;1.27;;
48285;SDS011;34102;47.716;10.296;2023-12-22T10:06:00;13.48;;;2.85;;
48285;SDS011;34102;47.716;10.296;2023-12-22T10:08:26;7.65;;;2.03;;
48285;SDS011;34102;47.716;10.296;2023-12-22T10:10:52;12.73;;;1.67;;
48285;SDS011;34102;47.716;10.296;2023-12-22T10:13:19;6.95;;;1.17;;
48285;SDS011;34102;47.716;10.296;2023-12-22T10:15:45;7.03;;;1.00;;
48285;SDS011;34102;47.716;10.296;2023-12-22T10:18:12;9.10;;;1.45;;
48285;SDS011;34102;47.716;10.296;2023-12-22T10:20:38;8.73;;;1.80;;
48285;SDS011;34102;47.716;10.296;2023-12-22T10:23:04;10.50;;;1.23;;
48285;SDS011;34102;47.716;10.296;2023-12-22T10:25:29;8.00;;;1.50;;
48285;SDS011;34102;47.716;10.296;2023-12-22T10:27:56;6.78;;;1.40;;
48285;SDS011;34102;47.716;10.296;2023-12-22T10:30:22;10.20;;;1.38;;
48285;SDS011;34102;47.716;10.296;2023-12-22T10:32:50;7.72;;;1.10;;
48285;SDS011;34102;47.716;10.296;2023-12-22T10:35:16;6.75;;;1.27;;
48285;SDS011;34102;47.716;10.296;2023-12-22T10:37:42;9.55;;;1.52;;
48285;SDS011;34102;47.716;10.296;2023-12-22T10:40:11;7.20;;;1.25;;
48285;SDS011;34102;47.716;10.296;2023-12-22T10:42:36;6.38;;;1.25;;
48285;SDS011;34102;47.716;10.296;2023-12-22T10:45:02;8.13;;;1.05;;
48285;SDS011;34102;47.716;10.296;2023-12-22T10:47:28;7.95;;;0.95;;
48285;SDS011;34102;47.716;10.296;2023-12-22T10:49:54;7.28;;;0.60;;
48285;SDS011;34102;47.716;10.296;2023-12-22T10:52:20;4.53;;;0.70;;
48285;SDS011;34102;47.716;10.296;2023-12-22T10:54:46;10.27;;;1.05;;
48285;SDS011;34102;47.716;10.296;2023-12-22T10:57:13;4.95;;;0.65;;
48285;SDS011;34102;47.716;10.296;2023-12-22T10:59:45;3.65;;;1.48;;
48285;SDS011;34102;47.716;10.296;2023-12-22T11:02:18;4.80;;;0.82;;
48285;SDS011;34102;47.716;10.296;2023-12-22T11:05:05;6.65;;;1.02;;
48285;SDS011;34102;47.716;10.296;2023-12-22T11:07:32;5.90;;;1.02;;
48285;SDS011;34102;47.716;10.296;2023-12-22T11:10:02;6.03;;;1.00;;
48285;SDS011;34102;47.716;10.296;2023-12-22T11:12:28;1.98;;;0.52;;
48285;SDS011;34102;47.716;10.296;2023-12-22T11:14:55;9.65;;;0.95;;
48285;SDS011;34102;47.716;10.296;2023-12-22T11:17:21;8.02;;;1.25;;
48285;SDS011;34102;47.716;10.296;2023-12-22T11:19:53;4.97;;;0.70;;
48285;SDS011;34102;47.716;10.296;2023-12-22T11:22:19;6.03;;;0.90;;
48285;SDS011;34102;47.716;10.296;2023-12-22T11:24:49;3.55;;;0.70;;
48285;SDS011;34102;47.716;10.296;2023-12-22T11:27:18;6.20;;;0.80;;
48285;SDS011;34102;47.716;10.296;2023-12-22T11:29:47;5.10;;;0.80;;
48285;SDS011;34102;47.716;10.296;2023-12-22T11:32:14;5.07;;;0.93;;
48285;SDS011;34102;47.716;10.296;2023-12-22T11:34:40;2.40;;;0.50;;
48285;SDS011;34102;47.716;10.296;2023-12-22T11:37:07;6.07;;;0.70;;
48285;SDS011;34102;47.716;10.296;2023-12-22T11:39:35;3.97;;;0.68;;
48285;SDS011;34102;47.716;10.296;2023-12-22T11:42:00;7.57;;;0.82;;
48285;SDS011;34102;47.716;10.296;2023-12-22T11:44:30;5.90;;;0.98;;
48285;SDS011;34102;47.716;10.296;2023-12-22T11:47:06;5.40;;;0.70;;
48285;SDS011;34102;47.716;10.296;2023-12-22T11:49:33;5.88;;;0.90;;
48285;SDS011;34102;47.716;10.296;2023-12-22T11:51:59;3.05;;;0.50;;
48285;SDS011;34102;47.716;10.296;2023-12-22T12:02:40;4.90;;;0.85;;
48285;SDS011;34102;47.716;10.296;2023-12-22T12:05:06;3.03;;;0.47;;
48285;SDS011;34102;47.716;10.296;2023-12-22T12:07:42;6.95;;;1.15;;
48285;SDS011;34102;47.716;10.296;2023-12-22T12:13:11;6.30;;;1.25;;
48285;SDS011;34102;47.716;10.296;2023-12-22T12:15:41;3.70;;;0.80;;
48285;SDS011;34102;47.716;10.296;2023-12-22T12:18:06;5.97;;;0.98;;
48285;SDS011;34102;47.716;10.296;2023-12-22T12:20:32;3.50;;;0.40;;
48285;SDS011;34102;47.716;10.296;2023-12-22T12:22:57;4.57;;;0.40;;
48285;SDS011;34102;47.716;10.296;2023-12-22T12:25:23;1.20;;;0.28;;
48285;SDS011;34102;47.716;10.296;2023-12-22T12:28:01;5.97;;;0.85;;
48285;SDS011;34102;47.716;10.296;2023-12-22T12:30:26;7.55;;;1.45;;
48285;SDS011;34102;47.716;10.296;2023-12-22T12:32:55;5.10;;;0.60;;
48285;SDS011;34102;47.716;10.296;2023-12-22T12:35:28;3.85;;;0.45;;
48285;SDS011;34102;47.716;10.296;2023-12-22T12:37:55;2.55;;;0.40;;
48285;SDS011;34102;47.716;10.296;2023-12-22T12:40:20;1.48;;;0.30;;
48285;SDS011;34102;47.716;10.296;2023-12-22T12:42:50;3.15;;;0.30;;
48285;SDS011;34102;47.716;10.296;2023-12-22T12:45:24;4.38;;;0.40;;
48285;SDS011;34102;47.716;10.296;2023-12-22T12:47:54;4.22;;;1.20;;
48285;SDS011;34102;47.716;10.296;2023-12-22T12:50:22;2.53;;;0.85;;
48285;SDS011;34102;47.716;10.296;2023-12-22T12:52:51;2.72;;;0.50;;
48285;SDS011;34102;47.716;10.296;2023-12-22T12:55:20;14.70;;;6.78;;
48285;SDS011;34102;47.716;10.296;2023-12-22T12:57:52;6.57;;;3.03;;
48285;SDS011;34102;47.716;10.296;2023-12-22T13:00:25;6.00;;;2.88;;
48285;SDS011;34102;47.716;10.296;2023-12-22T13:02:53;10.48;;;3.97;;
48285;SDS011;34102;47.716;10.296;2023-12-22T13:05:22;3.28;;;0.47;;
48285;SDS011;34102;47.716;10.296;2023-12-22T13:07:47;2.75;;;0.40;;
48285;SDS011;34102;47.716;10.296;2023-12-22T13:10:23;1.50;;;0.30;;
48285;SDS011;34102;47.716;10.296;2023-12-22T13:12:51;0.90;;;0.10;;
48285;SDS011;34102;47.716;10.296;2023-12-22T13:15:19;2.47;;;0.30;;
48285;SDS011;34102;47.716;10.296;2023-12-22T13:17:47;0.50;;;0.00;;
48285;SDS011;34102;47.716;10.296;2023-12-22T13:20:14;0.35;;;0.10;;
48285;SDS011;34102;47.716;10.296;2023-12-22T13:22:39;0.52;;;0.10;;
48285;SDS011;34102;47.716;10.296;2023-12-22T13:25:05;0.50;;;0.10;;
48285;SDS011;34102;47.716;10.296;2023-12-22T13:27:48;0.15;;;0.10;;
48285;SDS011;34102;47.716;10.296;2023-12-22T13:30:14;0.40;;;0.00;;
48285;SDS011;34102;47.716;10.296;2023-12-22T13:32:42;0.20;;;0.10;;
48285;SDS011;34102;47.716;10.296;2023-12-22T13:35:08;0.45;;;0.10;;
48285;SDS011;34102;47.716;10.296;2023-12-22T13:37:39;0.95;;;0.10;;
48285;SDS011;34102;47.716;10.296;2023-12-22T13:40:09;0.00;;;0.00;;
48285;SDS011;34102;47.716;10.296;2023-12-22T13:42:36;0.70;;;0.30;;
48285;SDS011;34102;47.716;10.296;2023-12-22T13:45:04;0.50;;;0.10;;
48285;SDS011;34102;47.716;10.296;2023-12-22T13:47:30;0.30;;;0.00;;
48285;SDS011;34102;47.716;10.296;2023-12-22T13:49:56;0.10;;;0.00;;
48285;SDS011;34102;47.716;10.296;2023-12-22T13:52:32;0.30;;;0.00;;
48285;SDS011;34102;47.716;10.296;2023-12-22T13:55:09;0.10;;;0.00;;
48285;SDS011;34102;47.716;10.296;2023-12-22T13:57:35;0.10;;;0.00;;
48285;SDS011;34102;47.716;10.296;2023-12-22T14:00:01;0.20;;;0.00;;
48285;SDS011;34102;47.716;10.296;2023-12-22T14:02:29;0.00;;;0.00;;
48285;SDS011;34102;47.716;10.296;2023-12-22T14:04:56;0.22;;;0.00;;
48285;SDS011;34102;47.716;10.296;2023-12-22T14:07:21;0.70;;;0.10;;
48285;SDS011;34102;47.716;10.296;2023-12-22T14:09:46;0.25;;;0.08;;
48285;SDS011;34102;47.716;10.296;2023-12-22T14:12:14;0.10;;;0.00;;
48285;SDS011;34102;47.716;10.296;2023-12-22T14:14:42;0.08;;;0.00;;
48285;SDS011;34102;47.716;10.296;2023-12-22T14:17:11;0.22;;;0.00;;
48285;SDS011;34102;47.716;10.296;2023-12-22T14:19:37;0.30;;;0.22;;
48285;SDS011;34102;47.716;10.296;2023-12-22T14:22:02;0.22;;;0.10;;
48285;SDS011;34102;47.716;10.296;2023-12-22T14:24:29;0.20;;;0.10;;
48285;SDS011;34102;47.716;10.296;2023-12-22T14:26:55;0.10;;;0.00;;
48285;SDS011;34102;47.716;10.296;2023-12-22T14:29:21;0.08;;;0.00;;
48285;SDS011;34102;47.716;10.296;2023-12-22T14:31:50;0.38;;;0.00;;
48285;SDS011;34102;47.716;10.296;2023-12-22T14:34:15;0.45;;;0.08;;
48285;SDS011;34102;47.716;10.296;2023-12-22T14:36:42;0.10;;;0.00;;
48285;SDS011;34102;47.716;10.296;2023-12-22T14:39:07;1.85;;;0.30;;
48285;SDS011;34102;47.716;10.296;2023-12-22T14:41:35;0.17;;;0.08;;
48285;SDS011;34102;47.716;10.296;2023-12-22T14:44:00;1.40;;;0.10;;
48285;SDS011;34102;47.716;10.296;2023-12-22T14:46:27;0.60;;;0.10;;
48285;SDS011;34102;47.716;10.296;2023-12-22T14:48:53;0.20;;;0.05;;
48285;SDS011;34102;47.716;10.296;2023-12-22T14:51:19;0.20;;;0.10;;
48285;SDS011;34102;47.716;10.296;2023-12-22T14:53:46;0.20;;;0.00;;
48285;SDS011;34102;47.716;10.296;2023-12-22T14:56:12;0.50;;;0.10;;
48285;SDS011;34102;47.716;10.296;2023-12-22T14:58:41;0.20;;;0.10;;
48285;SDS011;34102;47.716;10.296;2023-12-22T15:01:11;0.43;;;0.10;;
48285;SDS011;34102;47.716;10.296;2023-12-22T15:03:37;1.05;;;0.20;;
48285;SDS011;34102;47.716;10.296;2023-12-22T15:06:03;0.38;;;0.10;;
48285;SDS011;34102;47.716;10.296;2023-12-22T15:08:28;0.30;;;0.10;;
48285;SDS011;34102;47.716;10.296;2023-12-22T15:10:53;0.68;;;0.20;;
48285;SDS011;34102;47.716;10.296;2023-12-22T15:13:19;0.55;;;0.08;;
48285;SDS011;34102;47.716;10.296;2023-12-22T15:15:44;0.20;;;0.10;;
48285;SDS011;34102;47.716;10.296;2023-12-22T15:18:12;0.20;;;0.00;;
48285;SDS011;34102;47.716;10.296;2023-12-22T15:20:37;0.00;;;0.00;;
48285;SDS011;34102;47.716;10.296;2023-12-22T15:23:03;0.00;;;0.00;;
48285;SDS011;34102;47.716;10.296;2023-12-22T15:25:29;0.77;;;0.13;;
48285;SDS011;34102;47.716;10.296;2023-12-22T15:27:54;0.30;;;0.00;;
48285;SDS011;34102;47.716;10.296;2023-12-22T15:30:20;0.10;;;0.00;;
48285;SDS011;34102;47.716;10.296;2023-12-22T15:32:46;0.22;;;0.10;;
48285;SDS011;34102;47.716;10.296;2023-12-22T15:35:12;0.20;;;0.10;;
48285;SDS011;34102;47.716;10.296;2023-12-22T15:37:41;0.00;;;0.00;;
48285;SDS011;34102;47.716;10.296;2023-12-22T15:40:08;0.20;;;0.00;;
48285;SDS011;34102;47.716;10.296;2023-12-22T15:42:35;0.10;;;0.00;;
48285;SDS011;34102;47.716;10.296;2023-12-22T15:45:00;0.30;;;0.03;;
48285;SDS011;34102;47.716;10.296;2023-12-22T15:47:27;0.20;;;0.00;;
48285;SDS011;34102;47.716;10.296;2023-12-22T15:50:00;2.20;;;0.20;;
48285;SDS011;34102;47.716;10.296;2023-12-22T15:52:26;0.10;;;0.00;;
48285;SDS011;34102;47.716;10.296;2023-12-22T15:54:51;0.57;;;0.20;;
48285;SDS011;34102;47.716;10.296;2023-12-22T15:57:17;0.93;;;0.00;;
48285;SDS011;34102;47.716;10.296;2023-12-22T15:59:43;0.25;;;0.00;;
48285;SDS011;34102;47.716;10.296;2023-12-22T16:02:08;0.50;;;0.10;;
48285;SDS011;34102;47.716;10.296;2023-12-22T16:04:34;0.22;;;0.00;;
48285;SDS011;34102;47.716;10.296;2023-12-22T16:06:59;0.20;;;0.00;;
48285;SDS011;34102;47.716;10.296;2023-12-22T16:09:26;0.00;;;0.00;;
48285;SDS011;34102;47.716;10.296;2023-12-22T16:11:51;0.20;;;0.10;;
48285;SDS011;34102;47.716;10.296;2023-12-22T16:14:17;0.30;;;0.00;;
48285;SDS011;34102;47.716;10.296;2023-12-22T16:16:43;0.15;;;0.00;;
48285;SDS011;34102;47.716;10.296;2023-12-22T16:19:10;0.40;;;0.20;;
48285;SDS011;34102;47.716;10.296;2023-12-22T16:21:42;0.22;;;0.00;;
48285;SDS011;34102;47.716;10.296;2023-12-22T16:24:12;0.28;;;0.03;;
48285;SDS011;34102;47.716;10.296;2023-12-22T16:26:39;0.03;;;0.00;;
48285;SDS011;34102;47.716;10.296;2023-12-22T16:29:04;0.13;;;0.00;;
48285;SDS011;34102;47.716;10.296;2023-12-22T16:31:30;0.93;;;0.30;;
48285;SDS011;34102;47.716;10.296;2023-12-22T16:33:55;0.28;;;0.10;;
48285;SDS011;34102;47.716;10.296;2023-12-22T16:36:20;0.10;;;0.00;;
48285;SDS011;34102;47.716;10.296;2023-12-22T16:38:47;0.20;;;0.00;;
48285;SDS011;34102;47.716;10.296;2023-12-22T16:41:13;0.00;;;0.00;;
48285;SDS011;34102;47.716;10.296;2023-12-22T16:43:40;0.30;;;0.10;;
48285;SDS011;34102;47.716;10.296;2023-12-22T16:46:06;0.52;;;0.10;;
48285;SDS011;34102;47.716;10.296;2023-12-22T16:48:32;0.70;;;0.10;;
48285;SDS011;34102;47.716;10.296;2023-12-22T16:50:57;0.30;;;0.10;;
48285;SDS011;34102;47.716;10.296;2023-12-22T16:53:24;0.05;;;0.00;;
48285;SDS011;34102;47.716;10.296;2023-12-22T16:55:52;0.30;;;0.20;;
48285;SDS011;34102;47.716;10.296;2023-12-22T16:58:17;0.10;;;0.00;;
48285;SDS011;34102;47.716;10.296;2023-12-22T17:00:43;0.77;;;0.20;;
48285;SDS011;34102;47.716;10.296;2023-12-22T17:03:08;0.45;;;0.15;;
48285;SDS011;34102;47.716;10.296;2023-12-22T17:05:33;1.98;;;0.30;;
48285;SDS011;34102;47.716;10.296;2023-12-22T17:07:59;1.20;;;0.20;;
48285;SDS011;34102;47.716;10.296;2023-12-22T17:10:24;0.22;;;0.03;;
48285;SDS011;34102;47.716;10.296;2023-12-22T17:12:49;0.15;;;0.00;;
48285;SDS011;34102;47.716;10.296;2023-12-22T17:15:15;0.35;;;0.10;;
48285;SDS011;34102;47.716;10.296;2023-12-22T17:17:40;0.35;;;0.10;;
48285;SDS011;34102;47.716;10.296;2023-12-22T17:20:08;0.10;;;0.00;;
48285;SDS011;34102;47.716;10.296;2023-12-22T17:22:35;0.20;;;0.05;;
48285;SDS011;34102;47.716;10.296;2023-12-22T17:25:01;1.65;;;0.10;;
48285;SDS011;34102;47.716;10.296;2023-12-22T17:27:28;0.10;;;0.00;;
48285;SDS011;34102;47.716;10.296;2023-12-22T17:29:53;0.10;;;0.10;;
48285;SDS011;34102;47.716;10.296;2023-12-22T17:32:18;0.38;;;0.10;;
48285;SDS011;34102;47.716;10.296;2023-12-22T17:34:45;0.30;;;0.10;;
48285;SDS011;34102;47.716;10.296;2023-12-22T17:37:10;1.02;;;0.50;;
48285;SDS011;34102;47.716;10.296;2023-12-22T17:39:36;0.82;;;0.73;;
48285;SDS011;34102;47.716;10.296;2023-12-22T17:42:02;0.20;;;0.00;;
48285;SDS011;34102;47.716;10.296;2023-12-22T17:44:29;0.20;;;0.10;;
48285;SDS011;34102;47.716;10.296;2023-12-22T17:46:56;0.32;;;0.17;;
48285;SDS011;34102;47.716;10.296;2023-12-22T17:49:21;0.10;;;0.08;;
48285;SDS011;34102;47.716;10.296;2023-12-22T17:51:48;0.77;;;0.20;;
48285;SDS011;34102;47.716;10.296;2023-12-22T17:54:14;0.40;;;0.10;;
48285;SDS011;34102;47.716;10.296;2023-12-22T17:56:40;0.20;;;0.13;;
48285;SDS011;34102;47.716;10.296;2023-12-22T17:59:07;0.40;;;0.17;;
48285;SDS011;34102;47.716;10.296;2023-12-22T18:01:32;0.45;;;0.20;;
48285;SDS011;34102;47.716;10.296;2023-12-22T18:03:58;0.40;;;0.20;;
48285;SDS011;34102;47.716;10.296;2023-12-22T18:06:24;0.28;;;0.17;;
48285;SDS011;34102;47.716;10.296;2023-12-22T18:08:49;0.22;;;0.10;;
48285;SDS011;34102;47.716;10.296;2023-12-22T18:11:15;0.40;;;0.20;;
48285;SDS011;34102;47.716;10.296;2023-12-22T18:13:41;1.55;;;0.10;;
48285;SDS011;34102;47.716;10.296;2023-12-22T18:16:11;0.32;;;0.10;;
48285;SDS011;34102;47.716;10.296;2023-12-22T18:18:40;0.50;;;0.15;;
48285;SDS011;34102;47.716;10.296;2023-12-22T18:21:07;0.10;;;0.00;;
48285;SDS011;34102;47.716;10.296;2023-12-22T18:23:33;0.10;;;0.00;;
48285;SDS011;34102;47.716;10.296;2023-12-22T18:25:58;0.35;;;0.10;;
48285;SDS011;34102;47.716;10.296;2023-12-22T18:28:24;0.10;;;0.05;;
48285;SDS011;34102;47.716;10.296;2023-12-22T18:30:50;0.20;;;0.10;;
48285;SDS011;34102;47.716;10.296;2023-12-22T18:33:16;0.40;;;0.10;;
48285;SDS011;34102;47.716;10.296;2023-12-22T18:35:44;0.22;;;0.13;;
48285;SDS011;34102;47.716;10.296;2023-12-22T18:38:10;0.38;;;0.10;;
48285;SDS011;34102;47.716;10.296;2023-12-22T18:40:35;0.38;;;0.10;;
48285;SDS011;34102;47.716;10.296;2023-12-22T18:43:00;1.35;;;0.10;;
48285;SDS011;34102;47.716;10.296;2023-12-22T18:45:26;0.30;;;0.10;;
48285;SDS011;34102;47.716;10.296;2023-12-22T18:47:51;0.13;;;0.10;;
48285;SDS011;34102;47.716;10.296;2023-12-22T18:50:17;0.10;;;0.00;;
48285;SDS011;34102;47.716;10.296;2023-12-22T18:52:42;0.38;;;0.17;;
48285;SDS011;34102;47.716;10.296;2023-12-22T18:55:07;0.40;;;0.10;;
48285;SDS011;34102;47.716;10.296;2023-12-22T18:57:33;0.52;;;0.10;;
48285;SDS011;34102;47.716;10.296;2023-12-22T18:59:58;0.80;;;0.10;;
48285;SDS011;34102;47.716;10.296;2023-12-22T19:02:24;0.30;;;0.10;;
48285;SDS011;34102;47.716;10.296;2023-12-22T19:04:49;0.65;;;0.10;;
48285;SDS011;34102;47.716;10.296;2023-12-22T19:07:17;0.43;;;0.10;;
48285;SDS011;34102;47.716;10.296;2023-12-22T19:09:44;0.17;;;0.10;;
48285;SDS011;34102;47.716;10.296;2023-12-22T19:12:09;0.30;;;0.10;;
48285;SDS011;34102;47.716;10.296;2023-12-22T19:14:34;0.22;;;0.10;;
48285;SDS011;34102;47.716;10.296;2023-12-22T19:17:00;0.10;;;0.00;;
48285;SDS011;34102;47.716;10.296;2023-12-22T19:19:25;0.22;;;0.03;;
48285;SDS011;34102;47.716;10.296;2023-12-22T19:21:52;0.10;;;0.00;;
48285;SDS011;34102;47.716;10.296;2023-12-22T19:24:20;0.28;;;0.03;;
48285;SDS011;34102;47.716;10.296;2023-12-22T19:26:48;0.15;;;0.03;;
48285;SDS011;34102;47.716;10.296;2023-12-22T19:29:14;1.42;;;0.10;;
48285;SDS011;34102;47.716;10.296;2023-12-22T19:31:40;0.20;;;0.10;;
48285;SDS011;34102;47.716;10.296;2023-12-22T19:34:09;0.20;;;0.10;;
48285;SDS011;34102;47.716;10.296;2023-12-22T19:36:34;0.35;;;0.10;;
48285;SDS011;34102;47.716;10.296;2023-12-22T19:39:00;0.20;;;0.10;;
48285;SDS011;34102;47.716;10.296;2023-12-22T19:41:30;0.30;;;0.10;;
48285;SDS011;34102;47.716;10.296;2023-12-22T19:43:58;0.20;;;0.10;;
48285;SDS011;34102;47.716;10.296;2023-12-22T19:46:23;0.30;;;0.10;;
48285;SDS011;34102;47.716;10.296;2023-12-22T19:48:50;0.10;;;0.00;;
48285;SDS011;34102;47.716;10.296;2023-12-22T19:51:15;0.88;;;0.10;;
48285;SDS011;34102;47.716;10.296;2023-12-22T19:53:42;0.25;;;0.15;;
48285;SDS011;34102;47.716;10.296;2023-12-22T19:56:07;0.20;;;0.10;;
48285;SDS011;34102;47.716;10.296;2023-12-22T19:58:34;0.20;;;0.08;;
48285;SDS011;34102;47.716;10.296;2023-12-22T20:01:00;0.40;;;0.10;;
48285;SDS011;34102;47.716;10.296;2023-12-22T20:03:25;0.68;;;0.10;;
48285;SDS011;34102;47.716;10.296;2023-12-22T20:05:51;2.38;;;0.10;;
48285;SDS011;34102;47.716;10.296;2023-12-22T20:08:18;0.20;;;0.10;;